sensor_id;sensor_type;location;lat;lon;timestamp;P1;durP1;ratioP1;P2;durP2;ratioP2
74945;SDS011;63509;45.250;38.102;2022-11-15T00:01:57;45.00;;;17.85;;
74945;SDS011;63509;45.250;38.102;2022-11-15T00:04:41;44.55;;;19.17;;
74945;SDS011;63509;45.250;38.102;2022-11-15T00:07:26;53.97;;;22.77;;
74945;SDS011;63509;45.250;38.102;2022-11-15T00:10:10;61.97;;;26.95;;
74945;SDS011;63509;45.250;38.102;2022-11-15T00:12:55;60.45;;;27.85;;
74945;SDS011;63509;45.250;38.102;2022-11-15T00:15:40;66.13;;;24.88;;
74945;SDS011;63509;45.250;38.102;2022-11-15T00:18:25;61.67;;;25.38;;
74945;SDS011;63509;45.250;38.102;2022-11-15T00:21:11;54.72;;;25.73;;
74945;SDS011;63509;45.250;38.102;2022-11-15T00:23:57;88.38;;;30.90;;
74945;SDS011;63509;45.250;38.102;2022-11-15T00:26:42;70.60;;;29.80;;
74945;SDS011;63509;45.250;38.102;2022-11-15T00:29:27;76.32;;;28.45;;
74945;SDS011;63509;45.250;38.102;2022-11-15T00:32:11;53.22;;;24.10;;
74945;SDS011;63509;45.250;38.102;2022-11-15T00:34:56;64.20;;;25.88;;
74945;SDS011;63509;45.250;38.102;2022-11-15T00:37:40;47.28;;;21.23;;
74945;SDS011;63509;45.250;38.102;2022-11-15T00:40:25;38.35;;;16.35;;
74945;SDS011;63509;45.250;38.102;2022-11-15T00:43:10;33.85;;;17.08;;
74945;SDS011;63509;45.250;38.102;2022-11-15T00:45:54;49.15;;;17.75;;
74945;SDS011;63509;45.250;38.102;2022-11-15T00:48:39;41.13;;;17.17;;
74945;SDS011;63509;45.250;38.102;2022-11-15T00:51:23;48.20;;;16.92;;
74945;SDS011;63509;45.250;38.102;2022-11-15T00:54:08;49.42;;;20.33;;
74945;SDS011;63509;45.250;38.102;2022-11-15T00:56:52;32.22;;;16.83;;
74945;SDS011;63509;45.250;38.102;2022-11-15T00:59:37;33.42;;;17.00;;
74945;SDS011;63509;45.250;38.102;2022-11-15T01:02:22;31.85;;;15.85;;
74945;SDS011;63509;45.250;38.102;2022-11-15T01:05:06;24.95;;;13.68;;
74945;SDS011;63509;45.250;38.102;2022-11-15T01:07:52;39.17;;;16.13;;
74945;SDS011;63509;45.250;38.102;2022-11-15T01:10:40;26.38;;;14.80;;
74945;SDS011;63509;45.250;38.102;2022-11-15T01:13:25;36.00;;;16.08;;
74945;SDS011;63509;45.250;38.102;2022-11-15T01:16:14;30.58;;;14.45;;
74945;SDS011;63509;45.250;38.102;2022-11-15T01:19:01;33.85;;;13.80;;
74945;SDS011;63509;45.250;38.102;2022-11-15T01:21:48;30.83;;;14.40;;
74945;SDS011;63509;45.250;38.102;2022-11-15T01:24:33;39.83;;;15.45;;
74945;SDS011;63509;45.250;38.102;2022-11-15T01:27:18;39.92;;;17.85;;
74945;SDS011;63509;45.250;38.102;2022-11-15T01:30:02;56.00;;;24.83;;
74945;SDS011;63509;45.250;38.102;2022-11-15T01:32:50;101.53;;;36.30;;
74945;SDS011;63509;45.250;38.102;2022-11-15T01:35:37;102.15;;;34.65;;
74945;SDS011;63509;45.250;38.102;2022-11-15T01:38:23;68.47;;;27.42;;
74945;SDS011;63509;45.250;38.102;2022-11-15T01:41:18;75.07;;;27.77;;
74945;SDS011;63509;45.250;38.102;2022-11-15T01:47:35;68.38;;;30.08;;
74945;SDS011;63509;45.250;38.102;2022-11-15T01:50:27;67.28;;;29.67;;
74945;SDS011;63509;45.250;38.102;2022-11-15T01:53:16;90.18;;;31.35;;
74945;SDS011;63509;45.250;38.102;2022-11-15T01:56:04;108.30;;;35.28;;
74945;SDS011;63509;45.250;38.102;2022-11-15T02:01:37;82.57;;;32.83;;
74945;SDS011;63509;45.250;38.102;2022-11-15T02:04:26;82.47;;;22.63;;
74945;SDS011;63509;45.250;38.102;2022-11-15T02:07:14;46.65;;;18.98;;
74945;SDS011;63509;45.250;38.102;2022-11-15T02:10:04;51.88;;;18.38;;
74945;SDS011;63509;45.250;38.102;2022-11-15T02:13:01;57.67;;;19.17;;
74945;SDS011;63509;45.250;38.102;2022-11-15T02:15:52;51.72;;;17.45;;
74945;SDS011;63509;45.250;38.102;2022-11-15T02:18:41;60.65;;;21.70;;
74945;SDS011;63509;45.250;38.102;2022-11-15T02:21:43;55.20;;;24.17;;
74945;SDS011;63509;45.250;38.102;2022-11-15T02:31:04;43.88;;;18.08;;
74945;SDS011;63509;45.250;38.102;2022-11-15T02:40:38;64.82;;;22.20;;
74945;SDS011;63509;45.250;38.102;2022-11-15T02:43:48;48.60;;;17.88;;
74945;SDS011;63509;45.250;38.102;2022-11-15T02:49:58;46.30;;;17.50;;
74945;SDS011;63509;45.250;38.102;2022-11-15T02:52:50;73.15;;;22.33;;
74945;SDS011;63509;45.250;38.102;2022-11-15T02:55:41;68.93;;;21.50;;
74945;SDS011;63509;45.250;38.102;2022-11-15T03:04:50;72.85;;;23.15;;
74945;SDS011;63509;45.250;38.102;2022-11-15T03:07:42;65.38;;;26.13;;
74945;SDS011;63509;45.250;38.102;2022-11-15T03:13:36;71.20;;;23.85;;
74945;SDS011;63509;45.250;38.102;2022-11-15T03:16:40;72.18;;;26.75;;
74945;SDS011;63509;45.250;38.102;2022-11-15T03:19:33;84.03;;;23.38;;
74945;SDS011;63509;45.250;38.102;2022-11-15T03:22:28;64.82;;;25.65;;
74945;SDS011;63509;45.250;38.102;2022-11-15T03:25:18;70.65;;;24.77;;
74945;SDS011;63509;45.250;38.102;2022-11-15T03:28:06;66.65;;;22.80;;
74945;SDS011;63509;45.250;38.102;2022-11-15T03:30:54;72.68;;;25.02;;
74945;SDS011;63509;45.250;38.102;2022-11-15T03:33:40;54.38;;;21.83;;
74945;SDS011;63509;45.250;38.102;2022-11-15T03:36:26;61.38;;;20.63;;
74945;SDS011;63509;45.250;38.102;2022-11-15T03:39:11;44.63;;;17.58;;
74945;SDS011;63509;45.250;38.102;2022-11-15T03:42:33;39.15;;;15.23;;
74945;SDS011;63509;45.250;38.102;2022-11-15T03:48:07;37.13;;;14.43;;
74945;SDS011;63509;45.250;38.102;2022-11-15T03:51:03;32.13;;;14.38;;
74945;SDS011;63509;45.250;38.102;2022-11-15T03:53:48;27.67;;;12.73;;
74945;SDS011;63509;45.250;38.102;2022-11-15T03:56:33;26.60;;;13.38;;
74945;SDS011;63509;45.250;38.102;2022-11-15T03:59:17;31.20;;;12.18;;
74945;SDS011;63509;45.250;38.102;2022-11-15T04:02:02;35.83;;;13.15;;
74945;SDS011;63509;45.250;38.102;2022-11-15T04:04:47;24.85;;;13.15;;
74945;SDS011;63509;45.250;38.102;2022-11-15T04:07:31;33.92;;;13.07;;
74945;SDS011;63509;45.250;38.102;2022-11-15T04:10:16;33.65;;;13.65;;
74945;SDS011;63509;45.250;38.102;2022-11-15T04:13:01;22.27;;;11.52;;
74945;SDS011;63509;45.250;38.102;2022-11-15T04:15:47;27.60;;;13.32;;
74945;SDS011;63509;45.250;38.102;2022-11-15T04:18:31;29.35;;;14.85;;
74945;SDS011;63509;45.250;38.102;2022-11-15T04:21:16;19.73;;;11.10;;
74945;SDS011;63509;45.250;38.102;2022-11-15T04:24:19;25.40;;;12.10;;
74945;SDS011;63509;45.250;38.102;2022-11-15T04:27:04;26.27;;;13.75;;
74945;SDS011;63509;45.250;38.102;2022-11-15T04:29:48;24.17;;;13.43;;
74945;SDS011;63509;45.250;38.102;2022-11-15T04:32:33;37.35;;;15.25;;
74945;SDS011;63509;45.250;38.102;2022-11-15T04:35:17;30.48;;;13.45;;
74945;SDS011;63509;45.250;38.102;2022-11-15T04:38:03;45.85;;;15.50;;
74945;SDS011;63509;45.250;38.102;2022-11-15T04:40:49;40.47;;;14.18;;
74945;SDS011;63509;45.250;38.102;2022-11-15T04:43:33;34.35;;;16.55;;
74945;SDS011;63509;45.250;38.102;2022-11-15T04:46:18;31.38;;;15.23;;
74945;SDS011;63509;45.250;38.102;2022-11-15T04:49:02;42.97;;;15.00;;
74945;SDS011;63509;45.250;38.102;2022-11-15T04:51:48;25.98;;;13.57;;
74945;SDS011;63509;45.250;38.102;2022-11-15T04:54:32;30.25;;;13.70;;
74945;SDS011;63509;45.250;38.102;2022-11-15T04:57:17;33.38;;;13.85;;
74945;SDS011;63509;45.250;38.102;2022-11-15T05:00:06;42.25;;;15.23;;
74945;SDS011;63509;45.250;38.102;2022-11-15T05:02:52;43.63;;;14.57;;
74945;SDS011;63509;45.250;38.102;2022-11-15T05:05:56;34.95;;;16.30;;
74945;SDS011;63509;45.250;38.102;2022-11-15T05:08:42;33.78;;;13.23;;
74945;SDS011;63509;45.250;38.102;2022-11-15T05:11:27;27.52;;;12.13;;
74945;SDS011;63509;45.250;38.102;2022-11-15T05:14:11;29.88;;;12.25;;
74945;SDS011;63509;45.250;38.102;2022-11-15T05:16:57;37.60;;;12.55;;
74945;SDS011;63509;45.250;38.102;2022-11-15T05:19:41;29.05;;;13.63;;
74945;SDS011;63509;45.250;38.102;2022-11-15T05:22:26;28.85;;;13.32;;
74945;SDS011;63509;45.250;38.102;2022-11-15T05:25:11;28.52;;;13.65;;
74945;SDS011;63509;45.250;38.102;2022-11-15T05:27:55;32.78;;;13.23;;
74945;SDS011;63509;45.250;38.102;2022-11-15T05:30:40;27.73;;;13.00;;
74945;SDS011;63509;45.250;38.102;2022-11-15T05:33:24;24.65;;;12.88;;
74945;SDS011;63509;45.250;38.102;2022-11-15T05:36:14;36.97;;;12.65;;
74945;SDS011;63509;45.250;38.102;2022-11-15T05:39:07;24.95;;;12.23;;
74945;SDS011;63509;45.250;38.102;2022-11-15T05:41:54;21.80;;;11.50;;
74945;SDS011;63509;45.250;38.102;2022-11-15T05:44:44;20.50;;;12.48;;
74945;SDS011;63509;45.250;38.102;2022-11-15T05:47:31;31.05;;;13.23;;
74945;SDS011;63509;45.250;38.102;2022-11-15T05:50:19;33.13;;;14.48;;
74945;SDS011;63509;45.250;38.102;2022-11-15T05:53:04;33.65;;;13.25;;
74945;SDS011;63509;45.250;38.102;2022-11-15T05:55:49;28.90;;;13.45;;
74945;SDS011;63509;45.250;38.102;2022-11-15T05:58:34;29.13;;;13.55;;
74945;SDS011;63509;45.250;38.102;2022-11-15T06:01:20;26.77;;;12.65;;
74945;SDS011;63509;45.250;38.102;2022-11-15T06:04:05;34.70;;;16.15;;
74945;SDS011;63509;45.250;38.102;2022-11-15T06:06:50;35.08;;;16.98;;
74945;SDS011;63509;45.250;38.102;2022-11-15T06:09:35;28.77;;;15.20;;
74945;SDS011;63509;45.250;38.102;2022-11-15T06:12:20;38.92;;;18.20;;
74945;SDS011;63509;45.250;38.102;2022-11-15T06:15:04;36.63;;;19.00;;
74945;SDS011;63509;45.250;38.102;2022-11-15T06:17:49;46.35;;;21.80;;
74945;SDS011;63509;45.250;38.102;2022-11-15T06:20:34;42.38;;;17.23;;
74945;SDS011;63509;45.250;38.102;2022-11-15T06:23:18;41.35;;;17.52;;
74945;SDS011;63509;45.250;38.102;2022-11-15T06:26:03;30.90;;;15.75;;
74945;SDS011;63509;45.250;38.102;2022-11-15T06:28:48;51.35;;;16.45;;
74945;SDS011;63509;45.250;38.102;2022-11-15T06:31:33;33.85;;;17.13;;
74945;SDS011;63509;45.250;38.102;2022-11-15T06:34:18;36.85;;;17.48;;
74945;SDS011;63509;45.250;38.102;2022-11-15T06:37:03;42.78;;;19.88;;
74945;SDS011;63509;45.250;38.102;2022-11-15T06:39:47;43.35;;;19.45;;
74945;SDS011;63509;45.250;38.102;2022-11-15T06:42:32;47.20;;;19.10;;
74945;SDS011;63509;45.250;38.102;2022-11-15T06:45:16;50.85;;;23.02;;
74945;SDS011;63509;45.250;38.102;2022-11-15T06:48:01;30.23;;;15.93;;
74945;SDS011;63509;45.250;38.102;2022-11-15T06:50:52;48.63;;;19.30;;
74945;SDS011;63509;45.250;38.102;2022-11-15T06:53:38;43.80;;;20.70;;
74945;SDS011;63509;45.250;38.102;2022-11-15T06:56:23;96.95;;;26.13;;
74945;SDS011;63509;45.250;38.102;2022-11-15T06:59:08;111.93;;;31.65;;
74945;SDS011;63509;45.250;38.102;2022-11-15T07:01:52;87.72;;;28.05;;
74945;SDS011;63509;45.250;38.102;2022-11-15T07:04:37;89.32;;;28.70;;
74945;SDS011;63509;45.250;38.102;2022-11-15T07:07:21;92.07;;;32.03;;
74945;SDS011;63509;45.250;38.102;2022-11-15T07:10:06;50.17;;;22.83;;
74945;SDS011;63509;45.250;38.102;2022-11-15T07:12:52;50.53;;;21.75;;
74945;SDS011;63509;45.250;38.102;2022-11-15T07:15:37;64.18;;;25.52;;
74945;SDS011;63509;45.250;38.102;2022-11-15T07:18:22;60.30;;;24.58;;
74945;SDS011;63509;45.250;38.102;2022-11-15T07:21:07;65.38;;;25.55;;
74945;SDS011;63509;45.250;38.102;2022-11-15T07:23:53;93.63;;;29.65;;
74945;SDS011;63509;45.250;38.102;2022-11-15T07:26:37;146.85;;;37.15;;
74945;SDS011;63509;45.250;38.102;2022-11-15T07:29:21;153.63;;;41.15;;
74945;SDS011;63509;45.250;38.102;2022-11-15T07:32:06;165.35;;;42.65;;
74945;SDS011;63509;45.250;38.102;2022-11-15T07:34:50;174.07;;;49.75;;
74945;SDS011;63509;45.250;38.102;2022-11-15T07:37:35;207.38;;;53.08;;
74945;SDS011;63509;45.250;38.102;2022-11-15T07:40:20;207.75;;;55.55;;
74945;SDS011;63509;45.250;38.102;2022-11-15T07:43:05;196.88;;;50.03;;
74945;SDS011;63509;45.250;38.102;2022-11-15T07:45:51;204.20;;;54.08;;
74945;SDS011;63509;45.250;38.102;2022-11-15T07:48:36;198.90;;;50.38;;
74945;SDS011;63509;45.250;38.102;2022-11-15T07:51:23;175.70;;;50.03;;
74945;SDS011;63509;45.250;38.102;2022-11-15T07:54:08;108.28;;;39.05;;
74945;SDS011;63509;45.250;38.102;2022-11-15T07:56:52;132.48;;;41.90;;
74945;SDS011;63509;45.250;38.102;2022-11-15T07:59:37;177.85;;;48.05;;
74945;SDS011;63509;45.250;38.102;2022-11-15T08:02:22;159.63;;;42.58;;
74945;SDS011;63509;45.250;38.102;2022-11-15T08:05:06;179.88;;;46.05;;
74945;SDS011;63509;45.250;38.102;2022-11-15T08:07:51;190.30;;;56.75;;
74945;SDS011;63509;45.250;38.102;2022-11-15T08:10:36;188.45;;;58.70;;
74945;SDS011;63509;45.250;38.102;2022-11-15T08:13:21;212.70;;;65.13;;
74945;SDS011;63509;45.250;38.102;2022-11-15T08:16:05;217.68;;;64.07;;
74945;SDS011;63509;45.250;38.102;2022-11-15T08:18:50;216.15;;;63.30;;
74945;SDS011;63509;45.250;38.102;2022-11-15T08:21:34;203.40;;;59.88;;
74945;SDS011;63509;45.250;38.102;2022-11-15T08:24:19;215.30;;;62.00;;
74945;SDS011;63509;45.250;38.102;2022-11-15T08:27:04;144.95;;;53.58;;
74945;SDS011;63509;45.250;38.102;2022-11-15T08:29:49;175.82;;;62.28;;
74945;SDS011;63509;45.250;38.102;2022-11-15T08:32:34;150.13;;;54.80;;
74945;SDS011;63509;45.250;38.102;2022-11-15T08:35:19;88.07;;;37.33;;
74945;SDS011;63509;45.250;38.102;2022-11-15T08:38:04;60.38;;;29.02;;
74945;SDS011;63509;45.250;38.102;2022-11-15T08:40:49;84.88;;;39.28;;
74945;SDS011;63509;45.250;38.102;2022-11-15T08:43:35;67.85;;;31.17;;
